createdAt,value
2022-08-14T00:02:27.715Z,14.83
2022-08-14T00:04:59.946Z,16.87
2022-08-14T00:07:28.496Z,16.83
2022-08-14T00:10:50.231Z,15.77
2022-08-14T00:12:56.717Z,16.80
2022-08-14T00:15:30.020Z,16.00
2022-08-14T00:18:07.355Z,15.27
2022-08-14T00:20:43.013Z,16.03
2022-08-14T00:23:16.754Z,16.10
2022-08-14T00:25:54.117Z,15.00
2022-08-14T00:28:32.818Z,14.30
2022-08-14T00:31:05.324Z,15.77
2022-08-14T00:33:50.852Z,16.10
2022-08-14T00:36:47.100Z,16.53
2022-08-14T00:39:13.467Z,16.30
2022-08-14T00:41:43.878Z,16.27
2022-08-14T00:44:12.646Z,16.03
2022-08-14T00:46:42.561Z,16.53
2022-08-14T00:49:14.518Z,16.63
2022-08-14T00:51:44.589Z,16.10
2022-08-14T00:54:20.971Z,18.87
2022-08-14T00:56:55.566Z,18.37
2022-08-14T00:59:25.919Z,17.50
2022-08-14T01:01:58.412Z,16.77
2022-08-14T01:04:52.367Z,17.20
2022-08-14T01:07:20.634Z,16.60
2022-08-14T01:09:51.495Z,17.07
2022-08-14T01:12:26.547Z,17.60
2022-08-14T01:14:58.252Z,17.90
2022-08-14T01:17:50.809Z,19.70
2022-08-14T01:20:40.966Z,20.00
2022-08-14T01:23:19.037Z,19.60
2022-08-14T01:25:51.823Z,17.70
2022-08-14T01:28:46.938Z,16.40
2022-08-14T01:31:14.641Z,17.80
2022-08-14T01:34:00.450Z,16.60
2022-08-14T01:36:39.407Z,16.50
2022-08-14T01:39:12.955Z,16.77
2022-08-14T01:41:44.069Z,16.70
2022-08-14T01:44:32.551Z,17.03
2022-08-14T01:47:21.386Z,18.40
2022-08-14T01:50:01.230Z,17.80
2022-08-14T01:52:58.780Z,18.50
2022-08-14T01:55:32.314Z,15.83
2022-08-14T01:58:19.815Z,17.13
2022-08-14T02:00:54.718Z,16.50
2022-08-14T02:03:29.799Z,16.53
2022-08-14T02:06:04.153Z,17.63
2022-08-14T02:08:52.817Z,18.07
2022-08-14T02:11:26.163Z,17.90
2022-08-14T02:14:07.520Z,16.90
2022-08-14T02:16:39.216Z,18.87
2022-08-14T02:19:10.235Z,18.20
2022-08-14T02:21:43.583Z,16.40
2022-08-14T02:24:39.573Z,17.70
2022-08-14T02:28:23.429Z,16.03
2022-08-14T02:30:00.795Z,16.43
2022-08-14T02:32:36.941Z,16.23
2022-08-14T02:35:10.336Z,17.87
2022-08-14T02:37:48.144Z,16.70
2022-08-14T02:40:18.506Z,16.40
2022-08-14T02:42:55.220Z,15.90
2022-08-14T02:45:33.595Z,16.27
2022-08-14T02:48:10.583Z,16.50
2022-08-14T02:50:56.819Z,17.63
2022-08-14T02:53:29.543Z,18.70
2022-08-14T02:56:02.608Z,17.53
2022-08-14T02:58:38.613Z,17.33
2022-08-14T03:01:11.736Z,18.80
2022-08-14T03:03:41.641Z,20.77
2022-08-14T03:06:13.496Z,17.43
2022-08-14T03:08:49.341Z,17.00
2022-08-14T03:11:18.672Z,17.20
2022-08-14T03:13:51.565Z,16.77
2022-08-14T03:16:26.979Z,16.33
2022-08-14T03:19:01.032Z,17.50
2022-08-14T03:21:31.423Z,16.90
2022-08-14T03:24:16.564Z,16.83
2022-08-14T03:26:56.153Z,16.80
2022-08-14T03:29:29.477Z,16.33
2022-08-14T03:31:59.394Z,17.23
2022-08-14T03:34:48.372Z,17.10
2022-08-14T03:37:38.907Z,16.90
2022-08-14T03:40:07.386Z,17.17
2022-08-14T03:42:40.477Z,18.53
2022-08-14T03:45:18.536Z,17.93
2022-08-14T03:47:58.424Z,19.27
2022-08-14T03:50:31.551Z,17.07
2022-08-14T03:53:02.157Z,16.83
2022-08-14T03:55:31.437Z,16.67
2022-08-14T03:58:01.040Z,15.27
2022-08-14T04:00:43.651Z,17.40
2022-08-14T04:03:23.608Z,16.50
2022-08-14T04:05:53.486Z,16.20
2022-08-14T04:08:30.428Z,18.97
2022-08-14T04:11:02.063Z,18.47
2022-08-14T04:13:34.060Z,17.23
2022-08-14T04:16:10.097Z,18.03
2022-08-14T04:18:42.387Z,16.77
2022-08-14T04:21:11.776Z,17.20
2022-08-14T04:23:42.734Z,18.47
2022-08-14T04:26:27.364Z,16.30
2022-08-14T04:29:14.691Z,17.80
2022-08-14T04:33:00.411Z,18.67
2022-08-14T04:34:35.172Z,19.10
2022-08-14T04:37:25.343Z,19.20
2022-08-14T04:40:13.365Z,19.90
2022-08-14T04:43:01.803Z,19.20
2022-08-14T04:45:38.763Z,18.60
2022-08-14T04:48:39.086Z,18.73
2022-08-14T04:51:05.806Z,17.80
2022-08-14T04:53:42.956Z,19.37
2022-08-14T04:56:31.213Z,18.63
2022-08-14T04:59:09.498Z,19.00
2022-08-14T05:01:45.246Z,20.23
2022-08-14T05:04:20.784Z,19.50
2022-08-14T05:06:54.198Z,20.03
2022-08-14T05:09:23.684Z,20.73
2022-08-14T05:11:53.070Z,20.77
2022-08-14T05:14:45.524Z,20.13
2022-08-14T05:17:12.316Z,19.07
2022-08-14T05:19:44.904Z,18.53
2022-08-14T05:22:31.414Z,18.70
2022-08-14T05:25:01.181Z,18.40
2022-08-14T05:27:31.032Z,17.40
2022-08-14T05:30:01.201Z,18.63
2022-08-14T05:32:29.733Z,18.10
2022-08-14T05:35:00.959Z,18.77
2022-08-14T05:37:30.872Z,18.00
2022-08-14T05:40:02.100Z,17.67
2022-08-14T05:42:32.226Z,19.37
2022-08-14T05:45:04.061Z,20.33
2022-08-14T05:47:39.539Z,19.23
2022-08-14T05:50:17.613Z,19.73
2022-08-14T05:52:48.610Z,21.30
2022-08-14T05:55:21.979Z,19.47
2022-08-14T05:57:53.292Z,20.27
2022-08-14T06:00:28.558Z,19.30
2022-08-14T06:03:00.907Z,19.47
2022-08-14T06:05:38.728Z,20.40
2022-08-14T06:08:21.735Z,17.80
2022-08-14T06:11:06.567Z,18.20
2022-08-14T06:13:44.599Z,18.73
2022-08-14T06:16:17.590Z,17.40
2022-08-14T06:18:52.706Z,17.37
2022-08-14T06:21:23.813Z,17.70
2022-08-14T06:23:52.689Z,18.20
2022-08-14T06:26:22.376Z,16.73
2022-08-14T06:28:52.783Z,19.37
2022-08-14T06:31:22.595Z,16.83
2022-08-14T06:35:09.526Z,18.13
2022-08-14T06:36:41.269Z,18.57
2022-08-14T06:39:10.895Z,17.90
2022-08-14T06:41:56.915Z,16.20
2022-08-14T06:44:32.197Z,16.97
2022-08-14T06:47:02.678Z,16.80
2022-08-14T06:49:40.443Z,18.27
2022-08-14T06:52:18.310Z,18.83
2022-08-14T06:54:47.920Z,18.47
2022-08-14T06:57:16.465Z,17.13
2022-08-14T06:59:45.059Z,17.10
2022-08-14T07:02:31.111Z,16.50
2022-08-14T07:05:22.853Z,15.97
2022-08-14T07:07:53.330Z,16.90
2022-08-14T07:10:24.945Z,16.80
2022-08-14T07:13:03.916Z,17.13
2022-08-14T07:15:39.916Z,17.27
2022-08-14T07:18:12.149Z,15.53
2022-08-14T07:20:42.245Z,16.00
2022-08-14T07:23:20.827Z,16.33
2022-08-14T07:25:51.941Z,16.57
2022-08-14T07:28:24.591Z,16.00
2022-08-14T07:30:57.488Z,14.10
2022-08-14T07:33:36.658Z,14.07
2022-08-14T07:36:27.415Z,14.03
2022-08-14T07:39:00.288Z,14.20
2022-08-14T07:41:31.242Z,15.23
2022-08-14T07:44:32.226Z,14.23
2022-08-14T07:46:51.954Z,15.53
2022-08-14T07:49:20.932Z,14.60
2022-08-14T07:51:52.842Z,13.83
2022-08-14T07:54:29.815Z,15.70
2022-08-14T07:56:59.847Z,13.90
2022-08-14T07:59:42.569Z,13.60
2022-08-14T08:02:18.921Z,13.90
2022-08-14T08:04:52.968Z,14.03
2022-08-14T08:07:29.519Z,12.67
2022-08-14T08:10:02.266Z,12.33
2022-08-14T08:12:32.475Z,12.37
2022-08-14T08:15:07.488Z,12.00
2022-08-14T08:17:42.492Z,11.40
2022-08-14T08:20:27.230Z,10.87
2022-08-14T08:23:00.375Z,11.37
2022-08-14T08:25:33.027Z,10.97
2022-08-14T08:28:21.863Z,10.90
2022-08-14T08:30:56.459Z,10.70
2022-08-14T08:33:32.208Z,10.03
2022-08-14T08:36:03.773Z,11.50
2022-08-14T08:39:15.701Z,11.50
2022-08-14T08:41:23.487Z,12.60
2022-08-14T08:43:52.647Z,12.60
2022-08-14T08:46:24.043Z,12.13
2022-08-14T08:51:30.921Z,12.43
2022-08-14T08:54:04.545Z,12.90
2022-08-14T08:56:42.966Z,12.67
2022-08-14T08:59:27.352Z,10.30
2022-08-14T09:02:04.898Z,11.17
2022-08-14T09:04:45.538Z,10.93
2022-08-14T09:07:27.248Z,11.80
2022-08-14T09:09:59.196Z,12.33
2022-08-14T09:12:31.354Z,10.53
2022-08-14T09:15:03.098Z,11.60
2022-08-14T09:17:33.244Z,10.20
2022-08-14T09:20:03.955Z,9.23
2022-08-14T09:22:36.716Z,9.60
2022-08-14T09:25:11.665Z,8.40
2022-08-14T09:27:45.235Z,8.70
2022-08-14T09:30:32.887Z,7.67
2022-08-14T09:33:31.430Z,7.83
2022-08-14T09:36:28.736Z,7.60
2022-08-14T09:39:11.812Z,9.90
2022-08-14T09:42:21.989Z,7.80
2022-08-14T09:45:13.316Z,8.47
2022-08-14T09:47:43.505Z,8.67
2022-08-14T09:50:25.938Z,7.80
2022-08-14T09:53:03.756Z,7.97
2022-08-14T09:55:41.638Z,8.13
2022-08-14T09:58:19.158Z,7.50
2022-08-14T10:00:52.733Z,7.87
2022-08-14T10:03:34.028Z,8.23
2022-08-14T10:06:08.556Z,8.13
2022-08-14T10:08:50.941Z,6.73
2022-08-14T10:11:23.214Z,7.73
2022-08-14T10:13:55.896Z,7.90
2022-08-14T10:16:33.797Z,7.03
2022-08-14T10:19:07.279Z,7.93
2022-08-14T10:21:38.930Z,8.87
2022-08-14T10:24:36.107Z,8.53
2022-08-14T10:27:06.518Z,8.20
2022-08-14T10:29:37.110Z,8.00
2022-08-14T10:32:17.668Z,7.70
2022-08-14T10:34:52.828Z,7.70
2022-08-14T10:37:23.625Z,7.90
2022-08-14T10:40:05.766Z,7.60
2022-08-14T10:42:43.697Z,6.40
2022-08-14T10:45:21.199Z,6.63
2022-08-14T10:48:08.655Z,8.60
2022-08-14T10:50:46.397Z,8.20
2022-08-14T10:53:15.861Z,7.83
2022-08-14T10:55:45.784Z,8.30
2022-08-14T10:58:17.625Z,7.30
2022-08-14T11:00:57.453Z,7.90
2022-08-14T11:03:56.847Z,8.30
2022-08-14T11:06:27.139Z,8.80
2022-08-14T11:08:55.945Z,7.67
2022-08-14T11:11:35.810Z,7.87
2022-08-14T11:14:09.515Z,8.67
2022-08-14T11:16:40.610Z,8.57
2022-08-14T11:19:13.114Z,7.70
2022-08-14T11:21:45.826Z,7.80
2022-08-14T11:24:55.305Z,8.10
2022-08-14T11:27:07.179Z,8.17
2022-08-14T11:29:36.938Z,7.73
2022-08-14T11:32:07.136Z,9.57
2022-08-14T11:34:39.710Z,8.77
2022-08-14T11:37:23.522Z,7.90
2022-08-14T11:39:59.597Z,9.00
2022-08-14T11:42:56.608Z,8.30
2022-08-14T11:45:23.225Z,8.73
2022-08-14T11:48:13.555Z,7.33
2022-08-14T11:50:43.364Z,8.90
2022-08-14T11:53:21.781Z,8.33
2022-08-14T11:55:58.119Z,8.57
2022-08-14T11:58:29.105Z,7.70
2022-08-14T12:01:04.051Z,8.30
2022-08-14T12:03:51.883Z,8.90
2022-08-14T12:06:39.437Z,9.17
2022-08-14T12:09:14.934Z,8.40
2022-08-14T12:11:46.976Z,8.10
2022-08-14T12:14:30.324Z,8.40
2022-08-14T12:17:12.749Z,8.30
2022-08-14T12:19:51.348Z,8.43
2022-08-14T12:22:34.726Z,7.40
2022-08-14T12:25:10.021Z,7.50
2022-08-14T12:27:53.235Z,8.30
2022-08-14T12:30:39.638Z,8.00
2022-08-14T12:33:24.065Z,7.37
2022-08-14T12:35:56.421Z,7.20
2022-08-14T12:38:41.319Z,6.97
2022-08-14T12:41:20.257Z,6.93
2022-08-14T12:43:51.668Z,7.30
2022-08-14T12:46:28.690Z,7.20
2022-08-14T12:48:59.548Z,8.10
2022-08-14T12:51:30.587Z,8.10
2022-08-14T12:54:01.740Z,8.10
2022-08-14T12:56:34.564Z,7.90
2022-08-14T12:59:06.344Z,7.77
2022-08-14T13:01:59.803Z,8.10
2022-08-14T13:04:25.951Z,8.33
2022-08-14T13:06:54.941Z,7.70
2022-08-14T13:09:35.837Z,8.13
2022-08-14T13:12:34.932Z,7.97
2022-08-14T13:14:59.022Z,7.70
2022-08-14T13:17:29.022Z,8.57
2022-08-14T13:20:10.084Z,8.10
2022-08-14T13:22:42.703Z,8.00
2022-08-14T13:25:16.093Z,8.60
2022-08-14T13:27:47.835Z,8.07
2022-08-14T13:30:23.736Z,9.17
2022-08-14T13:32:54.303Z,9.03
2022-08-14T13:35:23.394Z,7.90
2022-08-14T13:37:53.552Z,8.33
2022-08-14T13:40:27.687Z,8.27
2022-08-14T13:42:57.642Z,7.53
2022-08-14T13:45:33.629Z,8.00
2022-08-14T13:48:28.504Z,8.67
2022-08-14T13:51:05.427Z,9.90
2022-08-14T13:54:07.029Z,8.60
2022-08-14T13:56:40.089Z,9.17
2022-08-14T13:59:10.432Z,9.50
2022-08-14T14:01:43.302Z,8.90
2022-08-14T14:04:19.500Z,9.60
2022-08-14T14:06:51.083Z,8.20
2022-08-14T14:09:37.799Z,9.03
2022-08-14T14:12:49.022Z,8.70
2022-08-14T14:15:09.583Z,8.80
2022-08-14T14:17:39.502Z,8.53
2022-08-14T14:20:15.323Z,7.70
2022-08-14T14:23:02.816Z,9.73
2022-08-14T14:25:38.675Z,8.37
2022-08-14T14:28:24.026Z,8.90
2022-08-14T14:30:57.190Z,9.03
2022-08-14T14:36:20.960Z,7.30
2022-08-14T14:38:58.445Z,6.70
2022-08-14T14:41:37.619Z,7.40
2022-08-14T14:44:13.478Z,7.70
2022-08-14T14:46:50.858Z,7.63
2022-08-14T14:49:21.899Z,8.50
2022-08-14T14:51:52.494Z,7.37
2022-08-14T14:54:32.179Z,9.30
2022-08-14T14:57:09.536Z,8.77
2022-08-14T14:59:39.490Z,7.70
2022-08-14T15:02:09.602Z,8.33
2022-08-14T15:04:43.822Z,7.70
2022-08-14T15:07:13.108Z,8.70
2022-08-14T15:09:45.367Z,6.80
2022-08-14T15:12:34.336Z,7.53
2022-08-14T15:15:11.929Z,8.40
2022-08-14T15:17:42.083Z,7.50
2022-08-14T15:20:17.503Z,8.43
2022-08-14T15:23:03.528Z,8.50
2022-08-14T15:25:41.109Z,8.10
2022-08-14T15:28:13.063Z,8.00
2022-08-14T15:30:57.789Z,8.50
2022-08-14T15:36:30.463Z,8.93
2022-08-14T15:39:00.952Z,7.70
2022-08-14T15:41:33.712Z,8.60
2022-08-14T15:44:19.104Z,7.37
2022-08-14T15:46:58.316Z,7.60
2022-08-14T15:49:34.978Z,8.50
2022-08-14T15:52:04.988Z,9.40
2022-08-14T15:54:33.910Z,8.00
2022-08-14T15:57:06.177Z,8.20
2022-08-14T15:59:51.237Z,8.37
2022-08-14T16:02:27.730Z,8.27
2022-08-14T16:04:56.654Z,8.30
2022-08-14T16:07:27.246Z,8.03
2022-08-14T16:10:27.304Z,9.43
2022-08-14T16:12:47.373Z,8.30
2022-08-14T16:15:17.880Z,8.60
2022-08-14T16:17:50.310Z,7.37
2022-08-14T16:20:42.385Z,8.10
2022-08-14T16:23:11.709Z,8.70
2022-08-14T16:25:43.504Z,8.37
2022-08-14T16:28:26.971Z,8.07
2022-08-14T16:30:56.682Z,8.17
2022-08-14T16:33:27.990Z,8.90
2022-08-14T16:36:31.405Z,9.20
2022-08-14T16:39:03.043Z,13.97
2022-08-14T16:41:32.237Z,8.17
2022-08-14T16:44:05.895Z,8.40
2022-08-14T16:46:44.579Z,26.07
2022-08-14T16:49:20.377Z,12.47
2022-08-14T16:51:52.999Z,11.03
2022-08-14T16:54:35.015Z,10.40
2022-08-14T16:57:16.902Z,10.83
2022-08-14T16:59:52.849Z,11.23
2022-08-14T17:02:35.547Z,9.47
2022-08-14T17:05:24.859Z,12.37
2022-08-14T17:08:31.643Z,13.33
2022-08-14T17:11:10.271Z,8.00
2022-08-14T17:13:58.189Z,9.90
2022-08-14T17:16:37.517Z,8.57
2022-08-14T17:19:09.918Z,8.90
2022-08-14T17:21:46.804Z,8.93
2022-08-14T17:24:51.458Z,8.93
2022-08-14T17:27:08.158Z,10.03
2022-08-14T17:29:54.330Z,10.13
2022-08-14T17:32:44.553Z,10.47
2022-08-14T17:35:59.003Z,9.13
2022-08-14T17:38:59.860Z,10.23
2022-08-14T17:41:43.689Z,10.07
2022-08-14T17:44:44.971Z,9.93
2022-08-14T17:47:18.314Z,9.43
2022-08-14T17:49:53.937Z,9.70
2022-08-14T17:52:36.091Z,10.60
2022-08-14T17:56:01.325Z,9.87
2022-08-14T17:58:16.572Z,10.13
2022-08-14T18:00:52.126Z,10.03
2022-08-14T18:03:50.420Z,10.20
2022-08-14T18:06:38.678Z,9.77
2022-08-14T18:09:01.559Z,9.90
2022-08-14T18:11:46.208Z,9.40
2022-08-14T18:14:31.450Z,10.70
2022-08-14T18:17:01.543Z,9.63
2022-08-14T18:19:34.599Z,8.47
2022-08-14T18:22:31.135Z,9.90
2022-08-14T18:24:58.778Z,8.77
2022-08-14T18:27:36.910Z,9.50
2022-08-14T18:30:31.923Z,9.70
2022-08-14T18:32:59.073Z,10.10
2022-08-14T18:35:45.669Z,10.00
2022-08-14T18:38:59.845Z,8.63
2022-08-14T18:41:37.019Z,9.33
2022-08-14T18:44:10.560Z,9.53
2022-08-14T18:47:15.942Z,10.20
2022-08-14T18:50:00.797Z,9.70
2022-08-14T18:52:49.304Z,9.30
2022-08-14T18:55:54.028Z,8.93
2022-08-14T18:58:34.418Z,9.43
2022-08-14T19:01:06.438Z,8.77
2022-08-14T19:03:59.940Z,10.20
2022-08-14T19:06:56.278Z,10.73
2022-08-14T19:09:57.905Z,9.80
2022-08-14T19:13:12.021Z,10.40
2022-08-14T19:15:43.898Z,9.37
2022-08-14T19:18:38.582Z,10.63
2022-08-14T19:21:13.364Z,11.00
2022-08-14T19:24:04.852Z,9.40
2022-08-14T19:27:14.766Z,9.67
2022-08-14T19:29:47.752Z,10.60
2022-08-14T19:32:40.841Z,9.70
2022-08-14T19:35:55.415Z,9.80
2022-08-14T19:38:51.976Z,10.40
2022-08-14T19:41:25.115Z,10.43
2022-08-14T19:44:12.575Z,10.00
2022-08-14T19:47:01.066Z,10.57
2022-08-14T19:50:07.955Z,10.80
2022-08-14T19:52:35.310Z,10.80
2022-08-14T19:55:17.173Z,10.43
2022-08-14T19:57:52.028Z,10.37
2022-08-14T20:00:29.117Z,10.73
2022-08-14T20:03:10.154Z,10.70
2022-08-14T20:05:45.708Z,10.67
2022-08-14T20:11:00.609Z,11.17
2022-08-14T20:12:00.548Z,11.50
2022-08-14T20:14:20.547Z,11.60
2022-08-14T20:16:54.646Z,11.77
2022-08-14T20:19:28.728Z,11.23
2022-08-14T20:22:04.645Z,11.37
2022-08-14T20:24:54.226Z,10.73
2022-08-14T20:27:33.290Z,11.30
2022-08-14T20:30:37.601Z,10.97
2022-08-14T20:33:11.256Z,11.00
2022-08-14T20:35:47.701Z,11.50
2022-08-14T20:38:29.198Z,10.87
2022-08-14T20:41:06.497Z,11.50
2022-08-14T20:43:54.576Z,10.13
2022-08-14T20:46:30.093Z,11.07
2022-08-14T20:49:02.377Z,10.40
2022-08-14T20:51:47.486Z,11.60
2022-08-14T20:54:34.654Z,10.20
2022-08-14T20:57:11.986Z,11.00
2022-08-14T20:59:44.424Z,10.97
2022-08-14T21:02:38.692Z,11.03
2022-08-14T21:05:22.501Z,11.17
2022-08-14T21:08:08.384Z,10.43
2022-08-14T21:10:53.206Z,10.47
2022-08-14T21:13:27.883Z,11.03
2022-08-14T21:16:34.386Z,9.70
2022-08-14T21:19:04.880Z,10.60
2022-08-14T21:21:41.663Z,10.30
2022-08-14T21:24:38.839Z,10.20
2022-08-14T21:27:13.011Z,10.93
2022-08-14T21:29:49.828Z,11.10
2022-08-14T21:32:36.486Z,11.50
2022-08-14T21:35:17.707Z,10.30
2022-08-14T21:37:47.941Z,10.73
2022-08-14T21:40:40.807Z,11.00
2022-08-14T21:43:18.577Z,10.90
2022-08-14T21:45:53.226Z,10.93
2022-08-14T21:48:25.303Z,10.13
2022-08-14T21:51:01.322Z,13.10
2022-08-14T21:53:36.763Z,11.43
2022-08-14T21:56:38.961Z,11.70
2022-08-14T21:59:10.967Z,10.60
2022-08-14T22:02:00.957Z,11.10
2022-08-14T22:04:40.599Z,12.60
2022-08-14T22:07:16.776Z,11.40
2022-08-14T22:09:54.646Z,11.67
2022-08-14T22:12:58.484Z,11.47
2022-08-14T22:15:16.393Z,12.43
2022-08-14T22:17:50.949Z,11.70
2022-08-14T22:20:22.861Z,11.30
2022-08-14T22:22:55.993Z,12.10
2022-08-14T22:25:33.828Z,12.07
2022-08-14T22:28:05.713Z,12.37
2022-08-14T22:30:35.096Z,11.60
2022-08-14T22:33:04.681Z,11.47
2022-08-14T22:35:33.977Z,11.40
2022-08-14T22:38:37.423Z,12.80
2022-08-14T22:41:12.553Z,11.43
2022-08-14T22:43:42.511Z,11.80
2022-08-14T22:46:15.503Z,12.50
2022-08-14T22:48:51.044Z,12.53
2022-08-14T22:51:22.870Z,12.10
2022-08-14T22:53:55.163Z,11.90
2022-08-14T22:56:30.047Z,13.20
2022-08-14T22:59:01.160Z,12.53
2022-08-14T23:01:57.322Z,12.50
2022-08-14T23:04:35.841Z,12.37
2022-08-14T23:07:23.220Z,11.67
2022-08-14T23:09:56.423Z,11.13
2022-08-14T23:12:37.103Z,12.23
2022-08-14T23:15:07.502Z,12.60
2022-08-14T23:17:40.474Z,12.33
2022-08-14T23:20:19.279Z,12.00
2022-08-14T23:22:51.200Z,12.60
2022-08-14T23:25:53.197Z,12.23
2022-08-14T23:28:34.495Z,11.90
2022-08-14T23:31:08.319Z,12.27
2022-08-14T23:33:42.019Z,11.87
2022-08-14T23:36:32.783Z,12.03
2022-08-14T23:39:10.273Z,12.90
2022-08-14T23:41:46.452Z,12.40
2022-08-14T23:44:23.756Z,12.67
2022-08-14T23:47:00.604Z,12.00
2022-08-14T23:49:59.817Z,14.47
2022-08-14T23:52:57.413Z,12.87
2022-08-14T23:55:11.774Z,14.80
2022-08-14T23:57:44.135Z,13.53
